createdAt,value
2018-09-15T00:00:08.037Z,15.80
2018-09-15T00:02:37.229Z,15.80
2018-09-15T00:05:06.470Z,15.80
2018-09-15T00:07:35.754Z,15.80
2018-09-15T00:10:04.835Z,15.70
2018-09-15T00:12:33.935Z,15.80
2018-09-15T00:15:02.993Z,15.80
2018-09-15T00:17:32.105Z,15.70
2018-09-15T00:20:01.170Z,15.70
2018-09-15T00:22:30.252Z,15.70
2018-09-15T00:24:59.499Z,15.60
2018-09-15T00:27:28.563Z,15.60
2018-09-15T00:29:57.686Z,15.50
2018-09-15T00:32:26.831Z,15.40
2018-09-15T00:34:56.101Z,15.40
2018-09-15T00:37:25.187Z,15.40
2018-09-15T00:39:54.380Z,15.30
2018-09-15T00:42:23.465Z,15.20
2018-09-15T00:44:52.544Z,15.10
2018-09-15T00:47:21.640Z,15.00
2018-09-15T00:49:50.846Z,14.90
2018-09-15T00:52:19.958Z,14.90
2018-09-15T00:54:49.108Z,14.80
2018-09-15T00:57:18.178Z,14.80
2018-09-15T00:59:47.335Z,14.80
2018-09-15T01:02:16.495Z,14.70
2018-09-15T01:04:45.652Z,14.80
2018-09-15T01:07:14.751Z,14.70
2018-09-15T01:09:43.833Z,14.70
2018-09-15T01:12:12.955Z,14.60
2018-09-15T01:14:42.045Z,14.60
2018-09-15T01:17:11.104Z,14.50
2018-09-15T01:19:40.335Z,14.40
2018-09-15T01:22:09.443Z,14.30
2018-09-15T01:24:38.528Z,14.30
2018-09-15T01:27:07.645Z,14.20
2018-09-15T01:29:36.768Z,14.20
2018-09-15T01:32:05.905Z,14.20
2018-09-15T01:34:35.045Z,14.20
2018-09-15T01:37:04.136Z,14.30
2018-09-15T01:39:33.225Z,14.30
2018-09-15T01:42:02.269Z,14.30
2018-09-15T01:44:31.353Z,14.30
2018-09-15T01:47:00.372Z,14.20
2018-09-15T01:49:29.440Z,14.20
2018-09-15T01:51:58.541Z,14.10
2018-09-15T01:54:27.687Z,14.00
2018-09-15T01:56:56.809Z,14.00
2018-09-15T01:59:25.929Z,14.00
2018-09-15T02:01:55.229Z,14.00
2018-09-15T02:04:24.351Z,14.00
2018-09-15T02:06:53.394Z,14.00
2018-09-15T02:09:22.431Z,14.00
2018-09-15T02:11:51.608Z,14.00
2018-09-15T02:14:20.717Z,14.10
2018-09-15T02:16:49.810Z,14.00
2018-09-15T02:19:18.844Z,14.10
2018-09-15T02:21:47.945Z,14.20
2018-09-15T02:24:16.997Z,14.30
2018-09-15T02:26:46.033Z,14.30
2018-09-15T02:29:15.104Z,14.30
2018-09-15T02:31:44.177Z,14.30
2018-09-15T02:34:13.238Z,14.40
2018-09-15T02:36:42.455Z,14.30
2018-09-15T02:39:12.322Z,14.30
2018-09-15T02:41:41.417Z,14.30
2018-09-15T02:44:10.536Z,14.30
2018-09-15T02:46:39.650Z,14.40
2018-09-15T02:49:08.703Z,14.40
2018-09-15T02:51:37.818Z,14.50
2018-09-15T02:54:07.103Z,14.50
2018-09-15T02:56:36.147Z,14.40
2018-09-15T02:59:05.255Z,14.50
2018-09-15T03:01:34.408Z,14.40
2018-09-15T03:04:03.497Z,14.40
2018-09-15T03:06:32.562Z,14.30
2018-09-15T03:09:01.638Z,14.30
2018-09-15T03:11:30.774Z,14.30
2018-09-15T03:13:59.891Z,14.30
2018-09-15T03:16:28.959Z,14.30
2018-09-15T03:18:58.025Z,14.30
2018-09-15T03:21:27.073Z,14.30
2018-09-15T03:23:56.180Z,14.30
2018-09-15T03:26:25.247Z,14.30
2018-09-15T03:28:54.490Z,14.30
2018-09-15T03:31:23.652Z,14.30
2018-09-15T03:33:52.850Z,14.20
2018-09-15T03:36:22.242Z,14.10
2018-09-15T03:38:51.299Z,14.10
2018-09-15T03:41:20.397Z,14.00
2018-09-15T03:43:49.801Z,14.00
2018-09-15T03:46:18.905Z,13.90
2018-09-15T03:48:47.947Z,13.90
2018-09-15T03:51:17.155Z,13.90
2018-09-15T03:53:46.271Z,13.80
2018-09-15T03:56:15.475Z,13.80
2018-09-15T03:58:44.545Z,13.70
2018-09-15T04:01:13.642Z,13.60
2018-09-15T04:03:43.306Z,13.60
2018-09-15T04:06:12.406Z,13.60
2018-09-15T04:08:41.483Z,13.50
2018-09-15T04:11:10.525Z,13.50
2018-09-15T04:13:39.696Z,13.50
2018-09-15T04:16:08.789Z,13.50
2018-09-15T04:18:37.862Z,13.60
2018-09-15T04:21:06.924Z,13.60
2018-09-15T04:23:35.973Z,13.70
2018-09-15T04:26:05.103Z,13.70
2018-09-15T04:28:34.197Z,13.60
2018-09-15T04:31:03.316Z,13.50
2018-09-15T04:33:32.410Z,13.50
2018-09-15T04:36:01.742Z,13.50
2018-09-15T04:38:30.815Z,13.40
2018-09-15T04:40:59.920Z,13.40
2018-09-15T04:43:28.980Z,13.40
2018-09-15T04:45:58.121Z,13.30
2018-09-15T04:48:28.056Z,13.30
2018-09-15T04:50:57.196Z,13.30
2018-09-15T04:53:26.333Z,13.40
2018-09-15T04:55:55.584Z,13.40
2018-09-15T04:58:24.644Z,13.50
2018-09-15T05:01:06.488Z,13.50
2018-09-15T05:03:36.190Z,13.50
2018-09-15T05:06:05.340Z,13.50
2018-09-15T05:08:34.484Z,13.50
2018-09-15T05:11:03.648Z,13.60
2018-09-15T05:13:32.867Z,13.60
2018-09-15T05:16:01.959Z,13.60
2018-09-15T05:18:31.174Z,13.60
2018-09-15T05:21:00.459Z,13.70
2018-09-15T05:23:29.861Z,13.70
2018-09-15T05:25:59.113Z,13.70
2018-09-15T05:28:28.274Z,13.70
2018-09-15T05:30:57.370Z,13.80
2018-09-15T05:33:26.433Z,13.70
2018-09-15T05:35:55.658Z,13.70
2018-09-15T05:38:24.749Z,13.70
2018-09-15T05:40:53.827Z,13.70
2018-09-15T05:43:22.917Z,13.70
2018-09-15T05:45:52.059Z,13.70
2018-09-15T05:48:21.134Z,13.60
2018-09-15T05:50:50.191Z,13.60
2018-09-15T05:53:19.331Z,13.50
2018-09-15T05:55:51.304Z,13.70
2018-09-15T05:58:20.381Z,13.70
2018-09-15T06:00:49.631Z,13.70
2018-09-15T06:03:18.702Z,13.80
2018-09-15T06:05:47.762Z,13.80
2018-09-15T06:08:16.919Z,13.90
2018-09-15T06:10:45.972Z,13.90
2018-09-15T06:13:15.055Z,13.80
2018-09-15T06:15:44.097Z,13.80
2018-09-15T06:18:13.227Z,13.80
2018-09-15T06:20:42.342Z,13.80
2018-09-15T06:23:11.486Z,13.70
2018-09-15T06:25:40.598Z,13.70
2018-09-15T06:28:10.297Z,13.90
2018-09-15T06:30:39.457Z,14.00
2018-09-15T06:33:08.671Z,14.10
2018-09-15T06:35:37.923Z,14.20
2018-09-15T06:38:07.001Z,14.20
2018-09-15T06:40:36.142Z,14.30
2018-09-15T06:43:05.359Z,14.30
2018-09-15T06:45:34.555Z,14.20
2018-09-15T06:48:03.814Z,14.20
2018-09-15T06:50:32.943Z,14.20
2018-09-15T06:53:02.067Z,14.20
2018-09-15T06:55:31.154Z,14.40
2018-09-15T06:58:00.306Z,14.50
2018-09-15T07:00:29.336Z,14.60
2018-09-15T07:02:58.394Z,14.60
2018-09-15T07:05:27.458Z,14.60
2018-09-15T07:07:56.734Z,14.50
2018-09-15T07:10:25.832Z,14.40
2018-09-15T07:12:54.980Z,14.30
2018-09-15T07:15:24.076Z,14.40
2018-09-15T07:17:53.152Z,14.60
2018-09-15T07:20:22.254Z,14.80
2018-09-15T07:22:51.421Z,14.90
2018-09-15T07:25:20.542Z,15.00
2018-09-15T07:27:49.592Z,14.90
2018-09-15T07:30:18.831Z,15.10
2018-09-15T07:32:47.959Z,15.30
2018-09-15T07:35:17.103Z,15.30
2018-09-15T07:37:46.272Z,15.50
2018-09-15T07:40:15.335Z,15.50
2018-09-15T07:42:44.425Z,15.70
2018-09-15T07:45:13.521Z,15.70
2018-09-15T07:47:42.633Z,15.70
2018-09-15T07:50:12.240Z,15.60
2018-09-15T07:52:41.349Z,15.70
2018-09-15T07:55:10.411Z,15.60
2018-09-15T07:57:39.786Z,15.60
2018-09-15T08:00:08.931Z,15.70
2018-09-15T08:02:38.068Z,15.80
2018-09-15T08:05:07.182Z,15.90
2018-09-15T08:07:36.373Z,15.90
2018-09-15T08:10:05.675Z,15.90
2018-09-15T08:12:34.785Z,16.00
2018-09-15T08:15:03.997Z,16.10
2018-09-15T08:17:33.121Z,16.30
2018-09-15T08:20:02.220Z,16.50
2018-09-15T08:22:31.377Z,16.70
2018-09-15T08:25:00.704Z,16.60
2018-09-15T08:27:30.036Z,16.50
2018-09-15T08:29:59.476Z,16.40
2018-09-15T08:32:28.931Z,16.40
2018-09-15T08:34:58.202Z,16.50
2018-09-15T08:37:27.490Z,16.50
2018-09-15T08:39:56.789Z,16.50
2018-09-15T08:42:25.988Z,16.50
2018-09-15T08:44:55.094Z,16.50
2018-09-15T08:47:24.272Z,16.50
2018-09-15T08:49:53.583Z,16.50
2018-09-15T08:52:22.745Z,16.50
2018-09-15T08:54:51.940Z,16.50
2018-09-15T08:57:21.065Z,16.60
2018-09-15T08:59:50.358Z,16.80
2018-09-15T09:02:19.484Z,17.00
2018-09-15T09:04:49.552Z,17.10
2018-09-15T09:07:18.710Z,17.50
2018-09-15T09:09:47.858Z,17.70
2018-09-15T09:12:17.025Z,17.80
2018-09-15T09:14:46.329Z,17.90
2018-09-15T09:17:15.377Z,17.80
2018-09-15T09:19:44.484Z,17.70
2018-09-15T09:22:13.607Z,17.60
2018-09-15T09:24:43.006Z,17.70
2018-09-15T09:27:12.243Z,17.80
2018-09-15T09:29:41.713Z,17.70
2018-09-15T09:32:10.844Z,17.70
2018-09-15T09:34:40.050Z,17.80
2018-09-15T09:37:09.711Z,17.80
2018-09-15T09:39:40.144Z,17.80
2018-09-15T09:42:10.737Z,17.90
2018-09-15T09:44:40.042Z,17.90
2018-09-15T09:47:09.288Z,18.00
2018-09-15T09:49:38.462Z,18.10
2018-09-15T09:52:07.978Z,18.10
2018-09-15T09:54:37.092Z,18.20
2018-09-15T09:57:06.212Z,18.10
2018-09-15T09:59:35.377Z,18.10
2018-09-15T10:02:10.854Z,18.10
2018-09-15T10:04:40.055Z,18.00
2018-09-15T10:07:11.144Z,18.10
2018-09-15T10:09:41.127Z,18.30
2018-09-15T10:12:10.193Z,18.20
2018-09-15T10:14:39.348Z,18.10
2018-09-15T10:17:10.106Z,18.20
2018-09-15T10:19:39.476Z,18.30
2018-09-15T10:22:08.661Z,18.20
2018-09-15T10:24:37.890Z,18.20
2018-09-15T10:27:07.900Z,18.30
2018-09-15T10:29:37.354Z,18.30
2018-09-15T10:32:07.072Z,18.30
2018-09-15T10:34:39.275Z,18.30
2018-09-15T10:37:08.577Z,18.40
2018-09-15T10:39:38.753Z,18.50
2018-09-15T10:42:08.114Z,18.50
2018-09-15T10:44:37.312Z,18.50
2018-09-15T10:47:06.595Z,18.50
2018-09-15T10:49:36.411Z,18.60
2018-09-15T10:52:05.535Z,18.70
2018-09-15T10:54:36.347Z,18.80
2018-09-15T10:57:06.420Z,19.00
2018-09-15T10:59:36.924Z,19.20
2018-09-15T11:02:06.581Z,19.30
2018-09-15T11:04:36.434Z,19.20
2018-09-15T11:07:06.352Z,19.10
2018-09-15T11:09:35.885Z,19.00
2018-09-15T11:12:05.048Z,18.90
2018-09-15T11:14:34.252Z,19.10
2018-09-15T11:17:04.370Z,19.20
2018-09-15T11:19:33.469Z,19.20
2018-09-15T11:22:02.819Z,19.40
2018-09-15T11:24:32.330Z,19.30
2018-09-15T11:27:08.287Z,19.20
2018-09-15T11:29:38.266Z,19.10
2018-09-15T11:32:12.133Z,19.00
2018-09-15T11:34:45.981Z,19.10
2018-09-15T11:37:19.933Z,19.10
2018-09-15T11:39:53.946Z,19.00
2018-09-15T11:42:29.100Z,19.00
2018-09-15T11:45:17.180Z,19.00
2018-09-15T11:48:01.746Z,18.20
2018-09-15T11:50:37.735Z,17.40
2018-09-15T11:53:19.666Z,16.80
2018-09-15T11:55:55.968Z,16.40
2018-09-15T11:58:37.757Z,16.30
2018-09-15T12:04:23.490Z,16.10
2018-09-15T12:07:02.009Z,16.10
2018-09-15T12:09:31.249Z,16.20
2018-09-15T12:12:00.437Z,16.20
2018-09-15T12:14:31.106Z,16.30
2018-09-15T12:17:00.445Z,16.20
2018-09-15T12:19:29.573Z,16.20
2018-09-15T12:22:00.041Z,16.00
2018-09-15T12:24:31.726Z,15.90
2018-09-15T12:27:01.084Z,15.80
2018-09-15T12:29:30.220Z,15.70
2018-09-15T12:32:00.828Z,15.80
2018-09-15T12:34:30.098Z,15.90
2018-09-15T12:37:03.047Z,16.10
2018-09-15T12:39:32.314Z,16.20
2018-09-15T12:42:02.399Z,16.10
2018-09-15T12:44:34.484Z,16.20
2018-09-15T12:47:05.406Z,16.20
2018-09-15T12:49:35.745Z,16.20
2018-09-15T12:52:10.075Z,16.30
2018-09-15T12:54:39.172Z,16.20
2018-09-15T12:57:13.849Z,16.40
2018-09-15T12:59:46.598Z,16.40
2018-09-15T13:02:18.529Z,16.40
2018-09-15T13:04:50.221Z,16.50
2018-09-15T13:07:21.989Z,16.60
2018-09-15T13:09:55.285Z,16.60
2018-09-15T13:12:26.631Z,16.70
2018-09-15T13:14:57.656Z,16.70
2018-09-15T13:17:31.720Z,16.80
2018-09-15T13:20:03.648Z,16.80
2018-09-15T13:22:35.016Z,16.80
2018-09-15T13:25:06.236Z,16.80
2018-09-15T13:27:40.073Z,16.90
2018-09-15T13:30:14.419Z,16.80
2018-09-15T13:32:51.203Z,16.80
2018-09-15T13:35:23.177Z,16.90
2018-09-15T13:37:55.703Z,17.10
2018-09-15T13:40:24.812Z,17.20
2018-09-15T13:42:55.295Z,17.30
2018-09-15T13:45:29.262Z,17.40
2018-09-15T13:48:00.043Z,17.30
2018-09-15T13:50:32.773Z,17.50
2018-09-15T13:53:12.542Z,17.60
2018-09-15T13:55:48.331Z,17.80
2018-09-15T13:58:25.183Z,17.90
2018-09-15T14:00:55.935Z,17.90
2018-09-15T14:03:27.684Z,17.90
2018-09-15T14:05:58.664Z,18.00
2018-09-15T14:08:36.328Z,18.00
2018-09-15T14:11:08.929Z,17.90
2018-09-15T14:13:42.701Z,17.90
2018-09-15T14:16:16.031Z,18.00
2018-09-15T14:18:50.257Z,18.10
2018-09-15T14:21:21.246Z,18.10
2018-09-15T14:23:55.371Z,18.00
2018-09-15T14:26:31.182Z,18.00
2018-09-15T14:29:02.373Z,18.00
2018-09-15T14:31:35.346Z,18.00
2018-09-15T14:34:04.550Z,18.00
2018-09-15T14:36:34.348Z,18.10
2018-09-15T14:39:07.669Z,18.10
2018-09-15T14:41:39.550Z,18.20
2018-09-15T14:44:12.569Z,18.10
2018-09-15T14:46:47.105Z,18.10
2018-09-15T14:49:20.613Z,18.10
2018-09-15T14:51:53.172Z,18.30
2018-09-15T14:54:22.932Z,18.30
2018-09-15T14:56:56.209Z,18.30
2018-09-15T14:59:29.750Z,18.50
2018-09-15T15:02:03.617Z,18.70
2018-09-15T15:04:38.444Z,18.70
2018-09-15T15:07:22.898Z,18.70
2018-09-15T15:10:00.119Z,18.60
2018-09-15T15:12:32.664Z,18.50
2018-09-15T15:15:02.916Z,18.30
2018-09-15T15:17:33.046Z,18.30
2018-09-15T15:20:10.566Z,18.10
2018-09-15T15:22:42.823Z,18.00
2018-09-15T15:25:19.905Z,17.80
2018-09-15T15:27:51.809Z,17.80
2018-09-15T15:30:23.947Z,17.80
2018-09-15T15:35:33.143Z,17.80
2018-09-15T15:38:07.383Z,17.80
2018-09-15T15:40:40.291Z,17.90
2018-09-15T15:43:19.044Z,18.00
2018-09-15T15:45:53.074Z,18.00
2018-09-15T15:48:25.091Z,18.00
2018-09-15T15:51:02.957Z,17.90
2018-09-15T15:53:46.225Z,17.90
2018-09-15T15:56:22.301Z,17.90
2018-09-15T15:58:58.025Z,17.90
2018-09-15T16:01:32.600Z,17.90
2018-09-15T16:04:03.137Z,17.90
2018-09-15T16:06:36.689Z,18.00
2018-09-15T16:09:31.850Z,18.00
2018-09-15T16:12:04.101Z,18.00
2018-09-15T16:14:53.901Z,17.90
2018-09-15T16:17:32.307Z,17.90
2018-09-15T16:20:12.488Z,17.90
2018-09-15T16:22:50.134Z,17.80
2018-09-15T16:25:23.722Z,17.70
2018-09-15T16:27:59.560Z,17.70
2018-09-15T16:30:40.705Z,17.70
2018-09-15T16:33:14.500Z,17.70
2018-09-15T16:35:50.141Z,17.70
2018-09-15T16:38:22.729Z,17.60
2018-09-15T16:40:55.998Z,17.60
2018-09-15T16:43:43.473Z,17.60
2018-09-15T16:46:19.695Z,17.60
2018-09-15T16:48:52.295Z,17.70
2018-09-15T16:51:28.402Z,17.60
2018-09-15T16:54:15.706Z,17.50
2018-09-15T16:56:59.199Z,17.30
2018-09-15T16:59:30.443Z,17.20
2018-09-15T17:02:05.738Z,17.10
2018-09-15T17:04:48.670Z,16.90
2018-09-15T17:07:24.170Z,16.80
2018-09-15T17:10:05.238Z,16.70
2018-09-15T17:12:38.701Z,16.60
2018-09-15T17:15:17.743Z,16.60
2018-09-15T17:17:52.189Z,16.60
2018-09-15T17:20:21.623Z,16.50
2018-09-15T17:22:51.536Z,16.50
2018-09-15T17:25:21.322Z,16.50
2018-09-15T17:27:50.695Z,16.50
2018-09-15T17:30:20.330Z,16.30
2018-09-15T17:32:50.825Z,16.10
2018-09-15T17:35:20.250Z,16.10
2018-09-15T17:37:49.670Z,16.00
2018-09-15T17:40:20.427Z,16.00
2018-09-15T17:42:50.675Z,15.90
2018-09-15T17:45:19.878Z,15.80
2018-09-15T17:47:56.272Z,15.70
2018-09-15T17:50:25.566Z,15.60
2018-09-15T17:52:54.850Z,15.60
2018-09-15T17:55:24.367Z,15.50
2018-09-15T17:57:53.507Z,15.40
2018-09-15T18:00:24.467Z,15.40
2018-09-15T18:02:53.703Z,15.30
2018-09-15T18:05:22.881Z,15.30
2018-09-15T18:07:53.059Z,15.30
2018-09-15T18:10:23.954Z,15.20
2018-09-15T18:12:54.259Z,15.20
2018-09-15T18:15:24.515Z,15.20
2018-09-15T18:17:56.227Z,15.20
2018-09-15T18:20:26.092Z,15.10
2018-09-15T18:22:58.430Z,15.00
2018-09-15T18:25:29.003Z,15.00
2018-09-15T18:28:00.235Z,15.00
2018-09-15T18:30:32.300Z,14.90
2018-09-15T18:33:02.241Z,14.90
2018-09-15T18:35:34.206Z,14.80
2018-09-15T18:38:06.248Z,14.80
2018-09-15T18:40:39.475Z,14.80
2018-09-15T18:43:09.190Z,14.80
2018-09-15T18:45:40.968Z,14.80
2018-09-15T18:48:10.400Z,14.80
2018-09-15T18:50:40.589Z,14.80
2018-09-15T18:53:10.993Z,14.80
2018-09-15T18:55:40.640Z,14.70
2018-09-15T18:58:10.097Z,14.70
2018-09-15T19:00:39.833Z,14.70
2018-09-15T19:03:13.453Z,14.60
2018-09-15T19:05:42.989Z,14.60
2018-09-15T19:08:12.793Z,14.50
2018-09-15T19:10:43.740Z,14.50
2018-09-15T19:13:14.001Z,14.50
2018-09-15T19:15:44.075Z,14.50
2018-09-15T19:18:14.437Z,14.50
2018-09-15T19:20:45.169Z,14.50
2018-09-15T19:23:14.563Z,14.50
2018-09-15T19:25:43.945Z,14.40
2018-09-15T19:28:13.834Z,14.40
2018-09-15T19:30:43.195Z,14.50
2018-09-15T19:33:12.510Z,14.50
2018-09-15T19:35:41.679Z,14.60
2018-09-15T19:38:10.833Z,14.70
2018-09-15T19:40:40.029Z,14.70
2018-09-15T19:43:09.242Z,14.70
2018-09-15T19:45:38.569Z,14.60
2018-09-15T19:48:07.677Z,14.60
2018-09-15T19:50:36.782Z,14.50
2018-09-15T19:53:05.915Z,14.40
2018-09-15T19:55:35.099Z,14.40
2018-09-15T19:58:04.208Z,14.40
2018-09-15T20:00:33.352Z,14.40
2018-09-15T20:03:03.233Z,14.40
2018-09-15T20:05:32.485Z,14.30
2018-09-15T20:08:01.663Z,14.30
2018-09-15T20:10:30.802Z,14.30
2018-09-15T20:13:00.032Z,14.20
2018-09-15T20:15:28.963Z,14.20
2018-09-15T20:17:56.928Z,14.20
2018-09-15T20:20:25.322Z,14.20
2018-09-15T20:22:56.117Z,14.20
2018-09-15T20:25:25.746Z,14.10
2018-09-15T20:27:55.493Z,14.10
2018-09-15T20:30:25.349Z,14.10
2018-09-15T20:32:56.099Z,14.10
2018-09-15T20:35:25.253Z,14.00
2018-09-15T20:37:54.469Z,13.90
2018-09-15T20:40:24.415Z,14.00
2018-09-15T20:42:53.577Z,13.80
2018-09-15T20:45:22.669Z,13.70
2018-09-15T20:47:51.884Z,13.70
2018-09-15T20:50:21.147Z,13.60
2018-09-15T20:52:50.282Z,13.60
2018-09-15T20:55:19.441Z,13.50
2018-09-15T20:57:48.508Z,13.50
2018-09-15T21:00:17.701Z,13.50
2018-09-15T21:02:46.901Z,13.50
2018-09-15T21:05:17.058Z,13.40
2018-09-15T21:07:46.130Z,13.40
2018-09-15T21:10:15.260Z,13.40
2018-09-15T21:12:44.602Z,13.30
2018-09-15T21:15:13.722Z,13.40
2018-09-15T21:17:42.928Z,13.40
2018-09-15T21:20:12.084Z,13.40
2018-09-15T21:22:41.562Z,13.30
2018-09-15T21:25:10.728Z,13.30
2018-09-15T21:27:39.938Z,13.40
2018-09-15T21:30:09.257Z,13.40
2018-09-15T21:32:39.323Z,13.40
2018-09-15T21:35:08.655Z,13.50
2018-09-15T21:37:38.185Z,13.40
2018-09-15T21:40:07.582Z,13.40
2018-09-15T21:42:36.866Z,13.40
2018-09-15T21:45:08.557Z,13.40
2018-09-15T21:47:38.138Z,13.40
2018-09-15T21:50:07.693Z,13.30
2018-09-15T21:52:37.082Z,13.30
2018-09-15T21:55:07.814Z,13.30
2018-09-15T21:57:37.215Z,13.30
2018-09-15T22:00:10.062Z,13.40
2018-09-15T22:02:39.650Z,13.30
2018-09-15T22:05:09.419Z,13.30
2018-09-15T22:07:38.940Z,13.30
2018-09-15T22:10:08.238Z,13.30
2018-09-15T22:12:37.498Z,13.30
2018-09-15T22:15:10.876Z,13.30
2018-09-15T22:17:40.571Z,13.30
2018-09-15T22:20:09.699Z,13.30
2018-09-15T22:22:39.019Z,13.30
2018-09-15T22:25:08.185Z,13.30
2018-09-15T22:27:37.386Z,13.30
2018-09-15T22:30:07.460Z,13.40
2018-09-15T22:32:36.801Z,13.40
2018-09-15T22:35:05.977Z,13.30
2018-09-15T22:37:35.118Z,13.30
2018-09-15T22:40:04.790Z,13.30
2018-09-15T22:42:33.934Z,13.30
2018-09-15T22:45:03.602Z,13.30
2018-09-15T22:47:32.839Z,13.30
2018-09-15T22:50:02.109Z,13.30
2018-09-15T22:52:31.357Z,13.30
2018-09-15T22:55:00.683Z,13.30
2018-09-15T22:57:29.776Z,13.30
2018-09-15T22:59:59.094Z,13.30
2018-09-15T23:02:35.080Z,13.30
2018-09-15T23:05:04.223Z,13.40
2018-09-15T23:07:33.422Z,13.40
2018-09-15T23:10:02.609Z,13.50
2018-09-15T23:12:31.822Z,13.40
2018-09-15T23:15:00.984Z,13.40
2018-09-15T23:17:30.200Z,13.30
2018-09-15T23:19:59.281Z,13.40
2018-09-15T23:22:28.566Z,13.40
2018-09-15T23:24:57.699Z,13.30
2018-09-15T23:27:26.869Z,13.30
2018-09-15T23:29:56.199Z,13.30
2018-09-15T23:32:25.401Z,13.30
2018-09-15T23:34:54.694Z,13.30
2018-09-15T23:37:23.847Z,13.30
2018-09-15T23:39:53.074Z,13.30
2018-09-15T23:42:22.224Z,13.30
2018-09-15T23:44:51.326Z,13.20
2018-09-15T23:47:20.432Z,13.20
2018-09-15T23:49:49.612Z,13.20
2018-09-15T23:52:18.718Z,13.20
2018-09-15T23:54:47.915Z,13.20
2018-09-15T23:57:17.106Z,13.10
2018-09-15T23:59:46.267Z,13.10
